sensor_id;sensor_type;location;lat;lon;timestamp;P1;durP1;ratioP1;P2;durP2;ratioP2
66256;SDS011;53049;43.446;3.698;2023-09-19T00:00:15;4.13;;;1.60;;
66256;SDS011;53049;43.446;3.698;2023-09-19T00:02:40;4.07;;;1.70;;
66256;SDS011;53049;43.446;3.698;2023-09-19T00:05:06;2.13;;;1.33;;
66256;SDS011;53049;43.446;3.698;2023-09-19T00:07:33;4.03;;;1.90;;
66256;SDS011;53049;43.446;3.698;2023-09-19T00:10:01;3.15;;;1.73;;
66256;SDS011;53049;43.446;3.698;2023-09-19T00:12:27;3.13;;;1.55;;
66256;SDS011;53049;43.446;3.698;2023-09-19T00:14:53;6.30;;;2.05;;
66256;SDS011;53049;43.446;3.698;2023-09-19T00:17:18;2.25;;;1.50;;
66256;SDS011;53049;43.446;3.698;2023-09-19T00:19:44;4.22;;;1.70;;
66256;SDS011;53049;43.446;3.698;2023-09-19T00:22:11;3.78;;;1.90;;
66256;SDS011;53049;43.446;3.698;2023-09-19T00:24:38;5.85;;;1.80;;
66256;SDS011;53049;43.446;3.698;2023-09-19T00:27:03;4.20;;;1.58;;
66256;SDS011;53049;43.446;3.698;2023-09-19T00:29:30;4.80;;;1.90;;
66256;SDS011;53049;43.446;3.698;2023-09-19T00:31:56;4.53;;;1.70;;
66256;SDS011;53049;43.446;3.698;2023-09-19T00:34:22;3.65;;;1.88;;
66256;SDS011;53049;43.446;3.698;2023-09-19T00:36:48;3.10;;;1.40;;
66256;SDS011;53049;43.446;3.698;2023-09-19T00:39:13;3.33;;;1.70;;
66256;SDS011;53049;43.446;3.698;2023-09-19T00:41:39;3.33;;;1.60;;
66256;SDS011;53049;43.446;3.698;2023-09-19T00:44:05;2.88;;;1.60;;
66256;SDS011;53049;43.446;3.698;2023-09-19T00:46:31;3.90;;;2.10;;
66256;SDS011;53049;43.446;3.698;2023-09-19T00:48:57;3.42;;;1.50;;
66256;SDS011;53049;43.446;3.698;2023-09-19T00:51:24;5.25;;;1.92;;
66256;SDS011;53049;43.446;3.698;2023-09-19T00:53:52;4.07;;;1.55;;
66256;SDS011;53049;43.446;3.698;2023-09-19T00:56:18;6.00;;;2.10;;
66256;SDS011;53049;43.446;3.698;2023-09-19T00:58:45;4.05;;;1.80;;
66256;SDS011;53049;43.446;3.698;2023-09-19T01:01:12;3.90;;;1.90;;
66256;SDS011;53049;43.446;3.698;2023-09-19T01:03:40;4.38;;;1.42;;
66256;SDS011;53049;43.446;3.698;2023-09-19T01:06:06;6.75;;;1.75;;
66256;SDS011;53049;43.446;3.698;2023-09-19T01:08:33;5.38;;;2.00;;
66256;SDS011;53049;43.446;3.698;2023-09-19T01:11:01;3.60;;;1.73;;
66256;SDS011;53049;43.446;3.698;2023-09-19T01:14:24;4.15;;;1.73;;
66256;SDS011;53049;43.446;3.698;2023-09-19T01:16:53;4.32;;;1.88;;
66256;SDS011;53049;43.446;3.698;2023-09-19T01:22:33;3.85;;;1.95;;
66256;SDS011;53049;43.446;3.698;2023-09-19T01:30:35;5.00;;;2.10;;
66256;SDS011;53049;43.446;3.698;2023-09-19T01:33:08;8.15;;;1.83;;
66256;SDS011;53049;43.446;3.698;2023-09-19T01:35:37;5.05;;;1.90;;
66256;SDS011;53049;43.446;3.698;2023-09-19T01:38:04;7.35;;;2.17;;
66256;SDS011;53049;43.446;3.698;2023-09-19T01:40:32;4.72;;;1.65;;
66256;SDS011;53049;43.446;3.698;2023-09-19T01:43:09;7.10;;;1.88;;
66256;SDS011;53049;43.446;3.698;2023-09-19T01:54:03;7.32;;;2.28;;
66256;SDS011;53049;43.446;3.698;2023-09-19T01:56:40;6.57;;;1.90;;
66256;SDS011;53049;43.446;3.698;2023-09-19T01:59:13;7.18;;;2.00;;
66256;SDS011;53049;43.446;3.698;2023-09-19T02:01:46;6.20;;;1.98;;
66256;SDS011;53049;43.446;3.698;2023-09-19T02:04:14;6.75;;;1.98;;
66256;SDS011;53049;43.446;3.698;2023-09-19T02:06:40;5.15;;;1.90;;
66256;SDS011;53049;43.446;3.698;2023-09-19T02:09:07;4.88;;;1.80;;
66256;SDS011;53049;43.446;3.698;2023-09-19T02:11:33;7.53;;;2.30;;
66256;SDS011;53049;43.446;3.698;2023-09-19T02:14:00;4.97;;;2.17;;
66256;SDS011;53049;43.446;3.698;2023-09-19T02:16:26;5.63;;;2.25;;
66256;SDS011;53049;43.446;3.698;2023-09-19T02:18:51;4.70;;;1.80;;
66256;SDS011;53049;43.446;3.698;2023-09-19T02:21:17;4.00;;;1.95;;
66256;SDS011;53049;43.446;3.698;2023-09-19T02:23:46;6.20;;;2.10;;
66256;SDS011;53049;43.446;3.698;2023-09-19T02:26:14;7.63;;;2.15;;
66256;SDS011;53049;43.446;3.698;2023-09-19T02:28:41;5.70;;;2.00;;
66256;SDS011;53049;43.446;3.698;2023-09-19T02:31:06;3.75;;;1.92;;
66256;SDS011;53049;43.446;3.698;2023-09-19T02:33:32;5.93;;;1.70;;
66256;SDS011;53049;43.446;3.698;2023-09-19T02:35:58;4.13;;;1.92;;
66256;SDS011;53049;43.446;3.698;2023-09-19T02:38:27;5.97;;;2.00;;
66256;SDS011;53049;43.446;3.698;2023-09-19T02:40:53;4.75;;;2.05;;
66256;SDS011;53049;43.446;3.698;2023-09-19T02:43:22;6.28;;;2.65;;
66256;SDS011;53049;43.446;3.698;2023-09-19T02:45:48;6.53;;;2.33;;
66256;SDS011;53049;43.446;3.698;2023-09-19T02:48:15;5.40;;;2.50;;
66256;SDS011;53049;43.446;3.698;2023-09-19T02:50:41;5.50;;;2.00;;
66256;SDS011;53049;43.446;3.698;2023-09-19T02:53:08;8.05;;;2.20;;
66256;SDS011;53049;43.446;3.698;2023-09-19T02:55:35;3.97;;;1.77;;
66256;SDS011;53049;43.446;3.698;2023-09-19T02:58:03;5.60;;;1.90;;
66256;SDS011;53049;43.446;3.698;2023-09-19T03:00:32;7.55;;;2.00;;
66256;SDS011;53049;43.446;3.698;2023-09-19T03:03:00;5.28;;;1.85;;
66256;SDS011;53049;43.446;3.698;2023-09-19T03:05:27;9.55;;;2.28;;
66256;SDS011;53049;43.446;3.698;2023-09-19T03:07:55;6.90;;;2.05;;
66256;SDS011;53049;43.446;3.698;2023-09-19T03:10:21;5.03;;;2.13;;
66256;SDS011;53049;43.446;3.698;2023-09-19T03:12:48;6.65;;;2.10;;
66256;SDS011;53049;43.446;3.698;2023-09-19T03:15:14;8.32;;;2.20;;
66256;SDS011;53049;43.446;3.698;2023-09-19T03:17:44;9.57;;;2.60;;
66256;SDS011;53049;43.446;3.698;2023-09-19T03:20:10;5.57;;;2.00;;
66256;SDS011;53049;43.446;3.698;2023-09-19T03:22:38;8.85;;;2.40;;
66256;SDS011;53049;43.446;3.698;2023-09-19T03:25:05;6.95;;;2.17;;
66256;SDS011;53049;43.446;3.698;2023-09-19T03:27:36;7.18;;;1.98;;
66256;SDS011;53049;43.446;3.698;2023-09-19T03:30:03;8.55;;;2.45;;
66256;SDS011;53049;43.446;3.698;2023-09-19T03:32:37;12.95;;;2.50;;
66256;SDS011;53049;43.446;3.698;2023-09-19T03:35:08;7.87;;;2.70;;
66256;SDS011;53049;43.446;3.698;2023-09-19T03:37:34;6.82;;;2.53;;
66256;SDS011;53049;43.446;3.698;2023-09-19T03:40:00;10.88;;;2.25;;
66256;SDS011;53049;43.446;3.698;2023-09-19T03:42:29;7.53;;;2.40;;
66256;SDS011;53049;43.446;3.698;2023-09-19T03:44:56;7.45;;;2.30;;
66256;SDS011;53049;43.446;3.698;2023-09-19T03:47:22;7.05;;;2.17;;
66256;SDS011;53049;43.446;3.698;2023-09-19T03:49:48;7.25;;;1.90;;
66256;SDS011;53049;43.446;3.698;2023-09-19T03:52:13;7.00;;;2.10;;
66256;SDS011;53049;43.446;3.698;2023-09-19T03:54:40;6.32;;;2.35;;
66256;SDS011;53049;43.446;3.698;2023-09-19T03:57:06;7.15;;;2.20;;
66256;SDS011;53049;43.446;3.698;2023-09-19T03:59:32;5.82;;;2.22;;
66256;SDS011;53049;43.446;3.698;2023-09-19T04:01:58;6.25;;;2.10;;
66256;SDS011;53049;43.446;3.698;2023-09-19T04:04:24;5.05;;;1.83;;
66256;SDS011;53049;43.446;3.698;2023-09-19T04:06:53;6.70;;;2.38;;
66256;SDS011;53049;43.446;3.698;2023-09-19T04:09:19;6.38;;;2.20;;
66256;SDS011;53049;43.446;3.698;2023-09-19T04:11:44;6.18;;;2.00;;
66256;SDS011;53049;43.446;3.698;2023-09-19T04:14:10;7.00;;;2.33;;
66256;SDS011;53049;43.446;3.698;2023-09-19T04:16:35;6.82;;;2.30;;
66256;SDS011;53049;43.446;3.698;2023-09-19T04:19:01;7.43;;;2.42;;
66256;SDS011;53049;43.446;3.698;2023-09-19T04:21:28;8.30;;;2.28;;
66256;SDS011;53049;43.446;3.698;2023-09-19T04:23:54;14.10;;;3.10;;
66256;SDS011;53049;43.446;3.698;2023-09-19T04:26:20;9.93;;;3.05;;
66256;SDS011;53049;43.446;3.698;2023-09-19T04:28:46;13.77;;;3.08;;
66256;SDS011;53049;43.446;3.698;2023-09-19T04:31:12;16.65;;;3.65;;
66256;SDS011;53049;43.446;3.698;2023-09-19T04:33:39;14.25;;;2.75;;
66256;SDS011;53049;43.446;3.698;2023-09-19T04:36:04;35.20;;;4.32;;
66256;SDS011;53049;43.446;3.698;2023-09-19T04:38:32;8.10;;;2.30;;
66256;SDS011;53049;43.446;3.698;2023-09-19T04:40:58;7.18;;;2.30;;
66256;SDS011;53049;43.446;3.698;2023-09-19T04:43:24;5.95;;;2.33;;
66256;SDS011;53049;43.446;3.698;2023-09-19T04:45:50;5.82;;;2.00;;
66256;SDS011;53049;43.446;3.698;2023-09-19T04:48:20;6.80;;;2.28;;
66256;SDS011;53049;43.446;3.698;2023-09-19T04:50:49;4.95;;;1.83;;
66256;SDS011;53049;43.446;3.698;2023-09-19T04:53:16;6.22;;;2.17;;
66256;SDS011;53049;43.446;3.698;2023-09-19T04:55:42;4.50;;;1.98;;
66256;SDS011;53049;43.446;3.698;2023-09-19T04:58:08;6.40;;;2.10;;
66256;SDS011;53049;43.446;3.698;2023-09-19T05:00:34;6.70;;;2.22;;
66256;SDS011;53049;43.446;3.698;2023-09-19T05:03:00;6.88;;;2.10;;
66256;SDS011;53049;43.446;3.698;2023-09-19T05:05:26;6.10;;;2.10;;
66256;SDS011;53049;43.446;3.698;2023-09-19T05:07:52;6.70;;;2.53;;
66256;SDS011;53049;43.446;3.698;2023-09-19T05:10:20;5.45;;;2.35;;
66256;SDS011;53049;43.446;3.698;2023-09-19T05:12:46;7.05;;;2.20;;
66256;SDS011;53049;43.446;3.698;2023-09-19T05:15:13;4.85;;;1.98;;
66256;SDS011;53049;43.446;3.698;2023-09-19T05:17:42;5.47;;;2.22;;
66256;SDS011;53049;43.446;3.698;2023-09-19T05:20:14;5.93;;;2.10;;
66256;SDS011;53049;43.446;3.698;2023-09-19T05:23:03;6.63;;;2.20;;
66256;SDS011;53049;43.446;3.698;2023-09-19T05:25:34;6.47;;;2.75;;
66256;SDS011;53049;43.446;3.698;2023-09-19T05:28:07;5.40;;;2.08;;
66256;SDS011;53049;43.446;3.698;2023-09-19T05:30:39;6.13;;;2.63;;
66256;SDS011;53049;43.446;3.698;2023-09-19T05:33:06;7.85;;;2.95;;
66256;SDS011;53049;43.446;3.698;2023-09-19T05:35:32;9.82;;;2.78;;
66256;SDS011;53049;43.446;3.698;2023-09-19T05:37:58;11.63;;;2.55;;
66256;SDS011;53049;43.446;3.698;2023-09-19T05:40:25;8.32;;;3.05;;
66256;SDS011;53049;43.446;3.698;2023-09-19T05:42:51;8.13;;;2.67;;
66256;SDS011;53049;43.446;3.698;2023-09-19T05:45:17;7.20;;;2.45;;
66256;SDS011;53049;43.446;3.698;2023-09-19T05:47:50;8.88;;;2.85;;
66256;SDS011;53049;43.446;3.698;2023-09-19T05:50:16;12.23;;;3.03;;
66256;SDS011;53049;43.446;3.698;2023-09-19T05:52:43;9.77;;;3.00;;
66256;SDS011;53049;43.446;3.698;2023-09-19T05:55:17;8.82;;;2.90;;
66256;SDS011;53049;43.446;3.698;2023-09-19T05:57:43;10.02;;;2.85;;
66256;SDS011;53049;43.446;3.698;2023-09-19T06:00:15;8.13;;;2.55;;
66256;SDS011;53049;43.446;3.698;2023-09-19T06:02:42;8.18;;;2.65;;
66256;SDS011;53049;43.446;3.698;2023-09-19T06:05:09;4.55;;;2.35;;
66256;SDS011;53049;43.446;3.698;2023-09-19T06:07:36;6.10;;;2.00;;
66256;SDS011;53049;43.446;3.698;2023-09-19T06:10:05;8.52;;;2.90;;
66256;SDS011;53049;43.446;3.698;2023-09-19T06:12:40;6.03;;;2.33;;
66256;SDS011;53049;43.446;3.698;2023-09-19T06:15:10;8.77;;;2.90;;
66256;SDS011;53049;43.446;3.698;2023-09-19T06:17:41;7.80;;;2.58;;
66256;SDS011;53049;43.446;3.698;2023-09-19T06:20:07;6.22;;;2.42;;
66256;SDS011;53049;43.446;3.698;2023-09-19T06:22:43;6.40;;;2.28;;
66256;SDS011;53049;43.446;3.698;2023-09-19T06:25:10;6.72;;;2.35;;
66256;SDS011;53049;43.446;3.698;2023-09-19T06:27:40;5.82;;;1.98;;
66256;SDS011;53049;43.446;3.698;2023-09-19T06:30:09;5.55;;;2.63;;
66256;SDS011;53049;43.446;3.698;2023-09-19T06:32:39;6.55;;;2.28;;
66256;SDS011;53049;43.446;3.698;2023-09-19T06:35:08;6.55;;;2.28;;
66256;SDS011;53049;43.446;3.698;2023-09-19T06:37:36;14.23;;;2.80;;
66256;SDS011;53049;43.446;3.698;2023-09-19T06:40:09;8.75;;;3.40;;
66256;SDS011;53049;43.446;3.698;2023-09-19T06:42:46;9.43;;;2.60;;
66256;SDS011;53049;43.446;3.698;2023-09-19T06:45:15;10.80;;;3.00;;
66256;SDS011;53049;43.446;3.698;2023-09-19T06:47:44;8.55;;;2.13;;
66256;SDS011;53049;43.446;3.698;2023-09-19T06:50:19;7.00;;;2.55;;
66256;SDS011;53049;43.446;3.698;2023-09-19T06:52:47;6.80;;;2.33;;
66256;SDS011;53049;43.446;3.698;2023-09-19T06:55:15;8.20;;;2.60;;
66256;SDS011;53049;43.446;3.698;2023-09-19T06:57:42;12.30;;;3.00;;
66256;SDS011;53049;43.446;3.698;2023-09-19T07:00:09;14.35;;;2.60;;
66256;SDS011;53049;43.446;3.698;2023-09-19T07:03:05;8.38;;;2.53;;
66256;SDS011;53049;43.446;3.698;2023-09-19T07:05:36;11.80;;;2.22;;
66256;SDS011;53049;43.446;3.698;2023-09-19T07:08:08;11.02;;;2.40;;
66256;SDS011;53049;43.446;3.698;2023-09-19T07:10:37;8.43;;;2.08;;
66256;SDS011;53049;43.446;3.698;2023-09-19T07:13:06;8.15;;;2.33;;
66256;SDS011;53049;43.446;3.698;2023-09-19T07:15:35;8.63;;;2.30;;
66256;SDS011;53049;43.446;3.698;2023-09-19T07:18:04;11.23;;;2.88;;
66256;SDS011;53049;43.446;3.698;2023-09-19T07:20:31;6.50;;;2.22;;
66256;SDS011;53049;43.446;3.698;2023-09-19T07:23:00;8.13;;;2.25;;
66256;SDS011;53049;43.446;3.698;2023-09-19T07:25:29;8.07;;;2.50;;
66256;SDS011;53049;43.446;3.698;2023-09-19T07:27:55;4.25;;;2.05;;
66256;SDS011;53049;43.446;3.698;2023-09-19T07:30:25;6.50;;;2.10;;
66256;SDS011;53049;43.446;3.698;2023-09-19T07:32:51;7.32;;;2.13;;
66256;SDS011;53049;43.446;3.698;2023-09-19T07:35:17;10.05;;;2.95;;
66256;SDS011;53049;43.446;3.698;2023-09-19T07:37:45;4.55;;;2.03;;
66256;SDS011;53049;43.446;3.698;2023-09-19T07:40:17;5.57;;;2.38;;
66256;SDS011;53049;43.446;3.698;2023-09-19T07:42:44;7.82;;;2.30;;
66256;SDS011;53049;43.446;3.698;2023-09-19T07:45:12;11.07;;;2.95;;
66256;SDS011;53049;43.446;3.698;2023-09-19T07:47:48;5.45;;;2.15;;
66256;SDS011;53049;43.446;3.698;2023-09-19T07:50:18;7.05;;;1.92;;
66256;SDS011;53049;43.446;3.698;2023-09-19T07:52:45;7.60;;;1.98;;
66256;SDS011;53049;43.446;3.698;2023-09-19T07:55:11;15.13;;;2.67;;
66256;SDS011;53049;43.446;3.698;2023-09-19T07:57:41;8.32;;;2.13;;
66256;SDS011;53049;43.446;3.698;2023-09-19T08:00:07;8.18;;;2.30;;
66256;SDS011;53049;43.446;3.698;2023-09-19T08:02:35;9.93;;;2.67;;
66256;SDS011;53049;43.446;3.698;2023-09-19T08:05:03;6.22;;;2.55;;
66256;SDS011;53049;43.446;3.698;2023-09-19T08:07:31;6.90;;;2.35;;
66256;SDS011;53049;43.446;3.698;2023-09-19T08:09:57;5.07;;;1.90;;
66256;SDS011;53049;43.446;3.698;2023-09-19T08:12:23;9.43;;;2.17;;
66256;SDS011;53049;43.446;3.698;2023-09-19T08:14:50;9.80;;;2.55;;
66256;SDS011;53049;43.446;3.698;2023-09-19T08:17:16;8.75;;;2.40;;
66256;SDS011;53049;43.446;3.698;2023-09-19T08:19:41;4.53;;;2.00;;
66256;SDS011;53049;43.446;3.698;2023-09-19T08:22:10;8.38;;;2.40;;
66256;SDS011;53049;43.446;3.698;2023-09-19T08:24:36;6.15;;;1.80;;
66256;SDS011;53049;43.446;3.698;2023-09-19T08:27:03;5.60;;;2.28;;
66256;SDS011;53049;43.446;3.698;2023-09-19T08:29:29;7.85;;;2.05;;
66256;SDS011;53049;43.446;3.698;2023-09-19T08:31:56;4.78;;;1.98;;
66256;SDS011;53049;43.446;3.698;2023-09-19T08:34:23;6.20;;;2.00;;
66256;SDS011;53049;43.446;3.698;2023-09-19T08:36:53;5.03;;;1.98;;
66256;SDS011;53049;43.446;3.698;2023-09-19T08:39:22;10.32;;;2.08;;
66256;SDS011;53049;43.446;3.698;2023-09-19T08:41:49;8.38;;;2.33;;
66256;SDS011;53049;43.446;3.698;2023-09-19T08:44:15;5.88;;;2.00;;
66256;SDS011;53049;43.446;3.698;2023-09-19T08:46:42;5.97;;;1.90;;
66256;SDS011;53049;43.446;3.698;2023-09-19T08:49:32;5.07;;;1.90;;
66256;SDS011;53049;43.446;3.698;2023-09-19T08:52:20;5.13;;;2.13;;
66256;SDS011;53049;43.446;3.698;2023-09-19T08:54:51;4.35;;;1.45;;
66256;SDS011;53049;43.446;3.698;2023-09-19T08:57:20;3.53;;;1.50;;
66256;SDS011;53049;43.446;3.698;2023-09-19T08:59:50;4.75;;;1.80;;
66256;SDS011;53049;43.446;3.698;2023-09-19T09:02:16;4.18;;;1.60;;
66256;SDS011;53049;43.446;3.698;2023-09-19T09:04:46;3.33;;;1.73;;
66256;SDS011;53049;43.446;3.698;2023-09-19T09:07:14;9.05;;;2.22;;
66256;SDS011;53049;43.446;3.698;2023-09-19T09:09:41;4.80;;;1.80;;
66256;SDS011;53049;43.446;3.698;2023-09-19T09:12:12;4.82;;;1.55;;
66256;SDS011;53049;43.446;3.698;2023-09-19T09:14:39;5.78;;;2.08;;
66256;SDS011;53049;43.446;3.698;2023-09-19T09:17:06;7.35;;;2.10;;
66256;SDS011;53049;43.446;3.698;2023-09-19T09:19:32;4.47;;;1.80;;
66256;SDS011;53049;43.446;3.698;2023-09-19T09:22:08;5.13;;;1.58;;
66256;SDS011;53049;43.446;3.698;2023-09-19T09:24:35;3.15;;;1.63;;
66256;SDS011;53049;43.446;3.698;2023-09-19T09:27:04;3.25;;;1.60;;
66256;SDS011;53049;43.446;3.698;2023-09-19T09:29:43;4.40;;;1.52;;
66256;SDS011;53049;43.446;3.698;2023-09-19T09:34:45;2.35;;;1.40;;
66256;SDS011;53049;43.446;3.698;2023-09-19T09:37:14;3.90;;;1.58;;
66256;SDS011;53049;43.446;3.698;2023-09-19T09:39:40;4.10;;;1.60;;
66256;SDS011;53049;43.446;3.698;2023-09-19T09:42:44;3.85;;;1.42;;
66256;SDS011;53049;43.446;3.698;2023-09-19T09:45:18;2.67;;;1.52;;
66256;SDS011;53049;43.446;3.698;2023-09-19T09:47:53;4.22;;;1.80;;
66256;SDS011;53049;43.446;3.698;2023-09-19T09:50:24;5.13;;;1.52;;
66256;SDS011;53049;43.446;3.698;2023-09-19T09:53:28;5.25;;;2.00;;
66256;SDS011;53049;43.446;3.698;2023-09-19T09:55:58;5.43;;;2.10;;
66256;SDS011;53049;43.446;3.698;2023-09-19T09:58:34;4.90;;;1.70;;
66256;SDS011;53049;43.446;3.698;2023-09-19T10:01:00;4.57;;;1.80;;
66256;SDS011;53049;43.446;3.698;2023-09-19T10:03:36;5.00;;;1.70;;
66256;SDS011;53049;43.446;3.698;2023-09-19T10:06:12;3.35;;;2.10;;
66256;SDS011;53049;43.446;3.698;2023-09-19T10:09:05;6.05;;;1.90;;
66256;SDS011;53049;43.446;3.698;2023-09-19T10:11:42;3.90;;;1.85;;
66256;SDS011;53049;43.446;3.698;2023-09-19T10:14:09;4.05;;;1.80;;
66256;SDS011;53049;43.446;3.698;2023-09-19T10:16:39;3.75;;;1.77;;
66256;SDS011;53049;43.446;3.698;2023-09-19T10:19:10;4.10;;;1.42;;
66256;SDS011;53049;43.446;3.698;2023-09-19T10:21:40;5.28;;;1.70;;
66256;SDS011;53049;43.446;3.698;2023-09-19T10:24:08;3.00;;;1.45;;
66256;SDS011;53049;43.446;3.698;2023-09-19T10:26:35;3.17;;;1.60;;
66256;SDS011;53049;43.446;3.698;2023-09-19T10:29:02;4.80;;;1.60;;
66256;SDS011;53049;43.446;3.698;2023-09-19T10:31:32;4.28;;;1.83;;
66256;SDS011;53049;43.446;3.698;2023-09-19T10:34:00;1.88;;;1.50;;
66256;SDS011;53049;43.446;3.698;2023-09-19T10:36:29;2.42;;;1.48;;
66256;SDS011;53049;43.446;3.698;2023-09-19T10:38:58;3.58;;;1.65;;
66256;SDS011;53049;43.446;3.698;2023-09-19T10:41:29;5.78;;;2.08;;
66256;SDS011;53049;43.446;3.698;2023-09-19T10:43:59;5.22;;;1.70;;
66256;SDS011;53049;43.446;3.698;2023-09-19T10:46:28;1.83;;;1.02;;
66256;SDS011;53049;43.446;3.698;2023-09-19T10:48:53;2.55;;;1.50;;
66256;SDS011;53049;43.446;3.698;2023-09-19T10:51:25;4.32;;;1.55;;
66256;SDS011;53049;43.446;3.698;2023-09-19T10:54:06;4.65;;;1.67;;
66256;SDS011;53049;43.446;3.698;2023-09-19T10:56:38;4.70;;;1.90;;
66256;SDS011;53049;43.446;3.698;2023-09-19T11:01:44;4.63;;;1.80;;
66256;SDS011;53049;43.446;3.698;2023-09-19T11:14:55;5.38;;;2.50;;
66256;SDS011;53049;43.446;3.698;2023-09-19T11:30:39;3.75;;;1.60;;
66256;SDS011;53049;43.446;3.698;2023-09-19T11:33:16;4.43;;;1.95;;
66256;SDS011;53049;43.446;3.698;2023-09-19T11:46:33;3.38;;;1.63;;
66256;SDS011;53049;43.446;3.698;2023-09-19T11:49:05;3.50;;;1.50;;
66256;SDS011;53049;43.446;3.698;2023-09-19T11:51:41;2.50;;;1.58;;
66256;SDS011;53049;43.446;3.698;2023-09-19T11:54:12;4.28;;;1.70;;
66256;SDS011;53049;43.446;3.698;2023-09-19T11:56:43;3.95;;;1.65;;
66256;SDS011;53049;43.446;3.698;2023-09-19T11:59:25;4.70;;;1.85;;
66256;SDS011;53049;43.446;3.698;2023-09-19T12:02:05;5.13;;;2.00;;
66256;SDS011;53049;43.446;3.698;2023-09-19T12:04:43;6.50;;;2.05;;
66256;SDS011;53049;43.446;3.698;2023-09-19T12:07:15;4.43;;;1.90;;
66256;SDS011;53049;43.446;3.698;2023-09-19T12:09:42;3.38;;;1.70;;
66256;SDS011;53049;43.446;3.698;2023-09-19T12:12:09;4.18;;;1.83;;
66256;SDS011;53049;43.446;3.698;2023-09-19T12:14:37;5.50;;;2.30;;
66256;SDS011;53049;43.446;3.698;2023-09-19T12:17:06;4.85;;;1.73;;
66256;SDS011;53049;43.446;3.698;2023-09-19T12:19:32;3.90;;;1.83;;
66256;SDS011;53049;43.446;3.698;2023-09-19T12:22:01;4.95;;;1.90;;
66256;SDS011;53049;43.446;3.698;2023-09-19T12:24:29;4.15;;;1.98;;
66256;SDS011;53049;43.446;3.698;2023-09-19T12:27:00;4.72;;;2.00;;
66256;SDS011;53049;43.446;3.698;2023-09-19T12:29:30;4.20;;;1.65;;
66256;SDS011;53049;43.446;3.698;2023-09-19T12:31:57;4.50;;;1.88;;
66256;SDS011;53049;43.446;3.698;2023-09-19T12:37:12;4.13;;;1.90;;
66256;SDS011;53049;43.446;3.698;2023-09-19T12:39:46;6.30;;;2.05;;
66256;SDS011;53049;43.446;3.698;2023-09-19T12:42:14;3.58;;;2.08;;
66256;SDS011;53049;43.446;3.698;2023-09-19T12:44:42;4.63;;;2.00;;
66256;SDS011;53049;43.446;3.698;2023-09-19T12:47:12;4.10;;;2.00;;
66256;SDS011;53049;43.446;3.698;2023-09-19T12:52:40;3.25;;;2.03;;
66256;SDS011;53049;43.446;3.698;2023-09-19T12:55:07;6.45;;;2.38;;
66256;SDS011;53049;43.446;3.698;2023-09-19T12:57:36;5.63;;;1.95;;
66256;SDS011;53049;43.446;3.698;2023-09-19T13:00:02;3.25;;;1.75;;
66256;SDS011;53049;43.446;3.698;2023-09-19T13:02:31;5.55;;;1.98;;
66256;SDS011;53049;43.446;3.698;2023-09-19T13:04:57;2.85;;;1.85;;
66256;SDS011;53049;43.446;3.698;2023-09-19T13:07:42;3.67;;;1.77;;
66256;SDS011;53049;43.446;3.698;2023-09-19T13:10:09;8.15;;;2.30;;
66256;SDS011;53049;43.446;3.698;2023-09-19T13:12:35;4.00;;;1.90;;
66256;SDS011;53049;43.446;3.698;2023-09-19T13:15:07;5.78;;;2.20;;
66256;SDS011;53049;43.446;3.698;2023-09-19T13:17:48;6.40;;;2.17;;
66256;SDS011;53049;43.446;3.698;2023-09-19T13:20:26;4.43;;;1.85;;
66256;SDS011;53049;43.446;3.698;2023-09-19T13:22:52;5.32;;;1.95;;
66256;SDS011;53049;43.446;3.698;2023-09-19T13:25:22;5.72;;;2.13;;
66256;SDS011;53049;43.446;3.698;2023-09-19T13:27:52;4.15;;;2.05;;
66256;SDS011;53049;43.446;3.698;2023-09-19T13:30:22;4.28;;;2.00;;
66256;SDS011;53049;43.446;3.698;2023-09-19T13:32:50;4.82;;;2.38;;
66256;SDS011;53049;43.446;3.698;2023-09-19T13:35:17;7.07;;;1.90;;
66256;SDS011;53049;43.446;3.698;2023-09-19T13:37:44;3.72;;;1.88;;
66256;SDS011;53049;43.446;3.698;2023-09-19T13:40:16;4.72;;;2.10;;
66256;SDS011;53049;43.446;3.698;2023-09-19T13:42:42;3.28;;;1.90;;
66256;SDS011;53049;43.446;3.698;2023-09-19T13:45:08;7.13;;;2.22;;
66256;SDS011;53049;43.446;3.698;2023-09-19T13:47:37;4.68;;;1.90;;
66256;SDS011;53049;43.446;3.698;2023-09-19T13:50:03;3.45;;;1.80;;
66256;SDS011;53049;43.446;3.698;2023-09-19T13:52:32;3.50;;;1.88;;
66256;SDS011;53049;43.446;3.698;2023-09-19T13:54:58;5.72;;;1.70;;
66256;SDS011;53049;43.446;3.698;2023-09-19T13:57:24;3.05;;;2.00;;
66256;SDS011;53049;43.446;3.698;2023-09-19T13:59:51;5.43;;;2.08;;
66256;SDS011;53049;43.446;3.698;2023-09-19T14:02:19;4.88;;;2.30;;
66256;SDS011;53049;43.446;3.698;2023-09-19T14:04:48;3.65;;;1.80;;
66256;SDS011;53049;43.446;3.698;2023-09-19T14:07:14;4.28;;;2.10;;
66256;SDS011;53049;43.446;3.698;2023-09-19T14:09:40;5.00;;;2.08;;
66256;SDS011;53049;43.446;3.698;2023-09-19T14:12:06;3.65;;;1.95;;
66256;SDS011;53049;43.446;3.698;2023-09-19T14:14:32;4.07;;;1.92;;
66256;SDS011;53049;43.446;3.698;2023-09-19T14:16:58;5.60;;;1.88;;
66256;SDS011;53049;43.446;3.698;2023-09-19T14:19:26;3.70;;;1.75;;
66256;SDS011;53049;43.446;3.698;2023-09-19T14:21:52;10.13;;;2.80;;
66256;SDS011;53049;43.446;3.698;2023-09-19T14:24:20;4.72;;;1.90;;
66256;SDS011;53049;43.446;3.698;2023-09-19T14:26:47;2.80;;;1.80;;
66256;SDS011;53049;43.446;3.698;2023-09-19T14:29:14;3.67;;;1.90;;
66256;SDS011;53049;43.446;3.698;2023-09-19T14:31:40;4.20;;;2.00;;
66256;SDS011;53049;43.446;3.698;2023-09-19T14:34:07;4.00;;;1.60;;
66256;SDS011;53049;43.446;3.698;2023-09-19T14:36:40;4.68;;;1.65;;
66256;SDS011;53049;43.446;3.698;2023-09-19T14:39:05;3.67;;;1.70;;
66256;SDS011;53049;43.446;3.698;2023-09-19T14:41:31;4.00;;;1.90;;
66256;SDS011;53049;43.446;3.698;2023-09-19T14:43:57;3.92;;;1.83;;
66256;SDS011;53049;43.446;3.698;2023-09-19T14:46:22;2.85;;;1.58;;
66256;SDS011;53049;43.446;3.698;2023-09-19T14:48:51;4.50;;;1.70;;
66256;SDS011;53049;43.446;3.698;2023-09-19T14:51:17;4.07;;;2.03;;
66256;SDS011;53049;43.446;3.698;2023-09-19T14:53:44;3.25;;;1.50;;
66256;SDS011;53049;43.446;3.698;2023-09-19T14:56:10;5.35;;;2.08;;
66256;SDS011;53049;43.446;3.698;2023-09-19T14:58:36;3.15;;;1.50;;
66256;SDS011;53049;43.446;3.698;2023-09-19T15:01:07;4.10;;;1.80;;
66256;SDS011;53049;43.446;3.698;2023-09-19T15:03:37;2.90;;;1.73;;
66256;SDS011;53049;43.446;3.698;2023-09-19T15:06:05;3.88;;;1.80;;
66256;SDS011;53049;43.446;3.698;2023-09-19T15:08:36;2.85;;;1.67;;
66256;SDS011;53049;43.446;3.698;2023-09-19T15:11:05;4.32;;;1.70;;
66256;SDS011;53049;43.446;3.698;2023-09-19T15:13:35;3.60;;;1.90;;
66256;SDS011;53049;43.446;3.698;2023-09-19T15:16:02;6.95;;;1.73;;
66256;SDS011;53049;43.446;3.698;2023-09-19T15:18:35;3.75;;;1.70;;
66256;SDS011;53049;43.446;3.698;2023-09-19T15:21:06;2.45;;;1.73;;
66256;SDS011;53049;43.446;3.698;2023-09-19T15:23:34;3.70;;;1.73;;
66256;SDS011;53049;43.446;3.698;2023-09-19T15:26:01;3.60;;;1.80;;
66256;SDS011;53049;43.446;3.698;2023-09-19T15:28:31;2.72;;;1.55;;
66256;SDS011;53049;43.446;3.698;2023-09-19T15:31:03;3.53;;;1.63;;
66256;SDS011;53049;43.446;3.698;2023-09-19T15:33:30;2.78;;;1.60;;
66256;SDS011;53049;43.446;3.698;2023-09-19T15:36:13;4.18;;;1.60;;
66256;SDS011;53049;43.446;3.698;2023-09-19T15:38:56;4.72;;;1.92;;
66256;SDS011;53049;43.446;3.698;2023-09-19T15:41:22;3.47;;;1.73;;
66256;SDS011;53049;43.446;3.698;2023-09-19T15:43:56;1.92;;;1.48;;
66256;SDS011;53049;43.446;3.698;2023-09-19T15:46:24;2.38;;;1.52;;
66256;SDS011;53049;43.446;3.698;2023-09-19T15:48:52;3.70;;;1.50;;
66256;SDS011;53049;43.446;3.698;2023-09-19T15:51:21;2.97;;;1.60;;
66256;SDS011;53049;43.446;3.698;2023-09-19T15:53:47;2.45;;;1.45;;
66256;SDS011;53049;43.446;3.698;2023-09-19T15:56:15;3.50;;;1.50;;
66256;SDS011;53049;43.446;3.698;2023-09-19T15:58:46;3.33;;;1.63;;
66256;SDS011;53049;43.446;3.698;2023-09-19T16:01:13;4.65;;;1.83;;